Time,TemperatureF,DewpointF,PressureIn,WindDirection,WindDirectionDegrees,WindSpeedMPH,WindSpeedGustMPH,Humidity,HourlyPrecipIn,Conditions,Clouds,dailyrainin,SoftwareType,DateUTC
2013-04-19 00:00:00,54.2,38.9,30.14,ESE,112,0.0,0.0,56,0.00,,---,0.00,VWS V14.01,2013-04-19 07:00:00,
2013-04-19 00:15:00,53.3,38.5,30.13,ESE,112,0.0,0.0,57,0.00,,---,0.00,VWS V14.01,2013-04-19 07:15:00,
2013-04-19 00:30:00,52.5,38.6,30.12,ESE,112,0.0,0.0,59,0.00,,---,0.00,VWS V14.01,2013-04-19 07:30:00,
2013-04-19 00:45:00,51.8,39.2,30.13,ESE,112,0.0,4.0,62,0.00,,---,0.00,VWS V14.01,2013-04-19 07:45:00,
2013-04-19 01:00:00,51.0,39.7,30.13,ESE,112,0.0,4.0,65,0.00,,---,0.00,VWS V14.01,2013-04-19 08:00:00,
2013-04-19 01:15:00,51.3,40.0,30.12,SE,135,2.0,5.0,65,0.00,,---,0.00,VWS V14.01,2013-04-19 08:15:00,
2013-04-19 01:30:00,51.6,39.8,30.12,SE,135,1.0,5.0,64,0.00,,---,0.00,VWS V14.01,2013-04-19 08:30:00,
2013-04-19 01:45:00,51.4,40.0,30.12,SE,135,0.0,0.0,65,0.00,,---,0.00,VWS V14.01,2013-04-19 08:45:00,
2013-04-19 02:00:00,51.2,40.2,30.12,SE,135,0.0,4.0,66,0.00,,---,0.00,VWS V14.01,2013-04-19 09:00:00,
2013-04-19 02:15:00,51.1,40.5,30.12,SE,135,0.0,0.0,67,0.00,,---,0.00,VWS V14.01,2013-04-19 09:15:00,
2013-04-19 02:30:00,50.8,41.0,30.12,SE,135,0.0,0.0,69,0.00,,---,0.00,VWS V14.01,2013-04-19 09:30:00,
2013-04-19 02:45:00,49.8,40.8,30.12,SE,135,0.0,2.0,71,0.00,,---,0.00,VWS V14.01,2013-04-19 09:45:00,
2013-04-19 03:00:00,49.1,40.8,30.12,SE,135,0.0,1.0,73,0.00,,---,0.00,VWS V14.01,2013-04-19 10:00:00,
2013-04-19 03:15:00,48.6,40.7,30.12,SE,135,0.0,0.0,74,0.00,,---,0.00,VWS V14.01,2013-04-19 10:15:00,
2013-04-19 03:30:00,48.2,40.7,30.12,SE,135,0.0,0.0,75,0.00,,---,0.00,VWS V14.01,2013-04-19 10:30:00,
2013-04-19 03:45:00,48.0,40.8,30.12,SE,135,0.0,0.0,76,0.00,,---,0.00,VWS V14.01,2013-04-19 10:45:00,
2013-04-19 04:00:00,47.7,40.5,30.13,SE,135,0.0,0.0,76,0.00,,---,0.00,VWS V14.01,2013-04-19 11:00:00,
2013-04-19 04:15:00,47.5,40.3,30.13,SE,135,0.0,5.0,76,0.00,,---,0.00,VWS V14.01,2013-04-19 11:15:00,
2013-04-19 04:30:00,47.3,40.1,30.13,SE,135,1.0,4.0,76,0.00,,---,0.00,VWS V14.01,2013-04-19 11:30:00,
2013-04-19 04:45:00,47.0,40.2,30.13,SE,135,2.0,5.0,77,0.00,,---,0.00,VWS V14.01,2013-04-19 11:45:00,
2013-04-19 05:00:00,46.9,40.7,30.12,ESE,112,2.0,6.0,79,0.00,,---,0.00,VWS V14.01,2013-04-19 12:00:00,
2013-04-19 05:15:00,47.5,41.3,30.12,ESE,112,0.0,1.0,79,0.00,,---,0.00,VWS V14.01,2013-04-19 12:15:00,
2013-04-19 05:30:00,47.6,41.4,30.13,ESE,112,0.0,0.0,79,0.00,,---,0.00,VWS V14.01,2013-04-19 12:30:00,
2013-04-19 05:45:00,47.3,41.1,30.14,ESE,112,1.0,5.0,79,0.00,,---,0.00,VWS V14.01,2013-04-19 12:45:00,
2013-04-19 06:00:00,46.9,40.4,30.14,ESE,112,0.0,2.0,78,0.00,,---,0.00,VWS V14.01,2013-04-19 13:00:00,
2013-04-19 06:15:00,47.5,41.3,30.12,ESE,112,0.0,1.0,79,0.00,,---,0.00,VWS V14.01,2013-04-19 13:15:00,
2013-04-19 06:22:00,46.5,40.3,30.14,ESE,120,0.0,0.0,79,0.00,,---,0.00,VWS V14.01,2013-04-19 13:22:00,
2013-04-19 06:27:00,46.4,40.6,30.14,ESE,120,0.0,0.0,80,0.00,,---,0.00,VWS V14.01,2013-04-19 13:27:00,
2013-04-19 06:30:00,46.4,40.6,30.14,ESE,120,0.0,0.0,80,0.00,,---,0.00,VWS V14.01,2013-04-19 13:30:00,
2013-04-19 06:32:00,46.4,40.6,30.14,ESE,120,0.0,0.0,80,0.00,,---,0.00,VWS V14.01,2013-04-19 13:32:00,
2013-04-19 06:37:00,46.3,40.5,30.14,ESE,120,0.0,0.0,80,0.00,,---,0.00,VWS V14.01,2013-04-19 13:37:00,
2013-04-19 06:42:00,46.2,40.4,30.14,ESE,120,0.0,0.0,80,0.00,,---,0.00,VWS V14.01,2013-04-19 13:42:00,
2013-04-19 06:45:00,46.1,40.3,30.14,ESE,120,0.0,0.0,80,0.00,,---,0.00,VWS V14.01,2013-04-19 13:45:00,
2013-04-19 06:47:00,46.1,40.3,30.14,ESE,120,0.0,0.0,80,0.00,,---,0.00,VWS V14.01,2013-04-19 13:47:00,
2013-04-19 06:51:00,46.0,40.5,30.15,SE,125,0.0,0.0,81,0.00,,---,0.00,VWS V14.01,2013-04-19 13:51:00,
2013-04-19 06:56:00,46.0,40.8,30.15,SE,125,0.0,0.0,82,0.00,,---,0.00,VWS V14.01,2013-04-19 13:56:00,
2013-04-19 07:00:00,46.0,40.8,30.15,SE,125,0.0,0.0,82,0.00,,---,0.00,VWS V14.01,2013-04-19 14:00:00,
2013-04-19 07:01:00,46.0,41.1,30.15,SE,125,0.0,0.0,83,0.00,,---,0.00,VWS V14.01,2013-04-19 14:01:00,
2013-04-19 07:06:00,46.2,41.6,30.15,ENE,76,0.0,4.0,84,0.00,,---,0.00,VWS V14.01,2013-04-19 14:06:00,
2013-04-19 07:11:00,46.5,42.2,30.15,ENE,75,0.0,4.0,85,0.00,,---,0.00,VWS V14.01,2013-04-19 14:11:00,
2013-04-19 07:15:00,46.7,42.4,30.15,ENE,76,0.0,4.0,85,0.00,,---,0.00,VWS V14.01,2013-04-19 14:15:00,
2013-04-19 07:16:00,46.8,42.5,30.15,ENE,76,0.0,0.0,85,0.00,,---,0.00,VWS V14.01,2013-04-19 14:16:00,
2013-04-19 07:21:00,47.1,42.8,30.15,ENE,76,0.0,4.0,85,0.00,,---,0.00,VWS V14.01,2013-04-19 14:21:00,
2013-04-19 07:26:00,47.4,43.1,30.15,ENE,77,0.0,4.0,85,0.00,,---,0.00,VWS V14.01,2013-04-19 14:26:00,
2013-04-19 07:30:00,47.6,43.3,30.15,ENE,77,0.0,4.0,85,0.00,,---,0.00,VWS V14.01,2013-04-19 14:30:00,
2013-04-19 07:31:00,47.7,43.4,30.16,ENE,76,0.0,0.0,85,0.00,,---,0.00,VWS V14.01,2013-04-19 14:31:00,
2013-04-19 07:36:00,48.0,43.4,30.16,East,80,0.0,0.0,84,0.00,,---,0.00,VWS V14.01,2013-04-19 14:36:00,
2013-04-19 07:41:00,48.3,43.7,30.16,East,80,0.0,0.0,84,0.00,,---,0.00,VWS V14.01,2013-04-19 14:41:00,
2013-04-19 07:45:00,48.6,44.0,30.16,East,80,0.0,0.0,84,0.00,,---,0.00,VWS V14.01,2013-04-19 14:45:00,
2013-04-19 07:46:00,48.7,44.1,30.16,East,80,0.0,0.0,84,0.00,,---,0.00,VWS V14.01,2013-04-19 14:46:00,
2013-04-19 07:51:00,49.0,44.1,30.16,East,80,0.0,0.0,83,0.00,,---,0.00,VWS V14.01,2013-04-19 14:51:00,
2013-04-19 07:56:00,49.3,44.4,30.16,SSE,167,0.0,0.0,83,0.00,,---,0.00,VWS V14.01,2013-04-19 14:56:00,
2013-04-19 08:00:00,49.6,44.3,30.16,SSE,168,0.0,0.0,82,0.00,,---,0.00,VWS V14.01,2013-04-19 15:00:00,
2013-04-19 08:01:00,49.6,44.0,30.17,SSE,167,0.0,0.0,81,0.00,,---,0.00,VWS V14.01,2013-04-19 15:01:00,
2013-04-19 08:06:00,49.9,44.3,30.17,SSE,167,0.0,0.0,81,0.00,,---,0.00,VWS V14.01,2013-04-19 15:06:00,
2013-04-19 08:11:00,50.2,44.0,30.17,SSE,167,0.0,0.0,79,0.00,,---,0.00,VWS V14.01,2013-04-19 15:11:00,
2013-04-19 08:15:00,50.4,43.8,30.17,SSE,167,0.0,0.0,78,0.00,,---,0.00,VWS V14.01,2013-04-19 15:15:00,
2013-04-19 08:16:00,50.5,43.6,30.17,SSE,167,0.0,0.0,77,0.00,,---,0.00,VWS V14.01,2013-04-19 15:16:00,
2013-04-19 08:21:00,51.0,44.4,30.17,SSE,168,0.0,0.0,78,0.00,,---,0.00,VWS V14.01,2013-04-19 15:21:00,
2013-04-19 08:26:00,51.6,45.0,30.17,SSE,167,0.0,1.0,78,0.00,,---,0.00,VWS V14.01,2013-04-19 15:26:00,
2013-04-19 08:30:00,51.9,44.9,30.17,SSE,167,0.0,1.0,77,0.00,,---,0.00,VWS V14.01,2013-04-19 15:30:00,
2013-04-19 08:31:00,52.0,44.3,30.17,SSE,167,0.0,0.0,75,0.00,,---,0.00,VWS V14.01,2013-04-19 15:31:00,
2013-04-19 08:36:00,52.5,44.5,30.17,SW,217,0.0,0.0,74,0.00,,---,0.00,VWS V14.01,2013-04-19 15:36:00,
2013-04-19 08:41:00,53.2,45.8,30.17,SW,217,0.0,0.0,76,0.00,,---,0.00,VWS V14.01,2013-04-19 15:41:00,
2013-04-19 08:45:00,53.6,45.9,30.17,SW,217,0.0,0.0,75,0.00,,---,0.00,VWS V14.01,2013-04-19 15:45:00,
2013-04-19 08:46:00,53.8,46.1,30.17,SW,217,0.0,0.0,75,0.00,,---,0.00,VWS V14.01,2013-04-19 15:46:00,
2013-04-19 08:51:00,54.2,45.8,30.17,SW,217,0.0,0.0,73,0.00,,---,0.00,VWS V14.01,2013-04-19 15:51:00,
2013-04-19 08:56:00,54.6,45.8,30.17,SW,217,0.0,0.0,72,0.00,,---,0.00,VWS V14.01,2013-04-19 15:56:00,
2013-04-19 09:00:00,54.9,46.1,30.17,SW,217,0.0,0.0,72,0.00,,---,0.00,VWS V14.01,2013-04-19 16:00:00,
2013-04-19 09:01:00,55.1,45.9,30.17,SW,217,0.0,0.0,71,0.00,,---,0.00,VWS V14.01,2013-04-19 16:01:00,
2013-04-19 09:06:00,55.7,46.5,30.17,SW,217,0.0,0.0,71,0.00,,---,0.00,VWS V14.01,2013-04-19 16:06:00,
2013-04-19 09:11:00,56.4,47.1,30.17,SW,217,0.0,0.0,71,0.00,,---,0.00,VWS V14.01,2013-04-19 16:11:00,
2013-04-19 09:15:00,57.2,47.9,30.17,SW,217,0.0,3.0,71,0.00,,---,0.00,VWS V14.01,2013-04-19 16:15:00,
2013-04-19 09:16:00,57.4,47.3,30.17,SW,217,0.0,0.0,69,0.00,,---,0.00,VWS V14.01,2013-04-19 16:16:00,
2013-04-19 09:21:00,58.5,47.6,30.18,SW,217,0.0,3.0,67,0.00,,---,0.00,VWS V14.01,2013-04-19 16:21:00,
2013-04-19 09:26:00,59.3,47.5,30.18,SW,217,0.0,3.0,65,0.00,,---,0.00,VWS V14.01,2013-04-19 16:26:00,
2013-04-19 09:30:00,59.8,48.0,30.18,SW,217,0.0,3.0,65,0.00,,---,0.00,VWS V14.01,2013-04-19 16:30:00,
2013-04-19 09:31:00,59.8,48.0,30.18,SW,217,0.0,1.0,65,0.00,,---,0.00,VWS V14.01,2013-04-19 16:31:00,
2013-04-19 09:36:00,60.4,48.6,30.18,SW,217,1.0,5.0,65,0.00,,---,0.00,VWS V14.01,2013-04-19 16:36:00,
2013-04-19 09:41:00,61.1,48.8,30.18,SW,217,2.0,5.0,64,0.00,,---,0.00,VWS V14.01,2013-04-19 16:41:00,
2013-04-19 09:45:00,61.7,49.0,30.18,SW,217,0.0,5.0,63,0.00,,---,0.00,VWS V14.01,2013-04-19 16:45:00,
2013-04-19 09:46:00,61.8,49.1,30.18,SW,216,2.0,4.0,63,0.00,,---,0.00,VWS V14.01,2013-04-19 16:46:00,
2013-04-19 09:51:00,62.5,48.0,30.18,WSW,254,0.0,4.0,59,0.00,,---,0.00,VWS V14.01,2013-04-19 16:51:00,
2013-04-19 09:56:00,63.2,49.5,30.18,WSW,254,0.0,4.0,61,0.00,,---,0.00,VWS V14.01,2013-04-19 16:56:00,
2013-04-19 10:00:00,63.9,49.3,30.18,WSW,254,3.0,4.0,59,0.00,,---,0.00,VWS V14.01,2013-04-19 17:00:00,
2013-04-19 10:01:00,64.0,49.4,30.18,WSW,255,2.0,4.0,59,0.00,,---,0.00,VWS V14.01,2013-04-19 17:01:00,
2013-04-19 10:06:00,65.1,49.5,30.18,WSW,257,0.0,4.0,57,0.00,,---,0.00,VWS V14.01,2013-04-19 17:06:00,
2013-04-19 10:11:00,66.1,50.0,30.18,WSW,256,0.0,4.0,56,0.00,,---,0.00,VWS V14.01,2013-04-19 17:11:00,
2013-04-19 10:15:00,66.7,50.0,30.17,WSW,258,2.0,4.0,55,0.00,,---,0.00,VWS V14.01,2013-04-19 17:15:00,
2013-04-19 10:16:00,66.8,50.1,30.18,WSW,257,2.0,4.0,55,0.00,,---,0.00,VWS V14.01,2013-04-19 17:16:00,
2013-04-19 10:21:00,67.4,50.2,30.18,WSW,254,0.0,4.0,54,0.00,,---,0.00,VWS V14.01,2013-04-19 17:21:00,
2013-04-19 10:26:00,67.7,50.0,30.18,South,172,5.0,5.0,53,0.00,,---,0.00,VWS V14.01,2013-04-19 17:26:00,
2013-04-19 10:30:00,68.2,48.9,30.18,SSE,150,2.0,5.0,50,0.00,,---,0.00,VWS V14.01,2013-04-19 17:30:00,
2013-04-19 10:31:00,68.4,48.5,30.18,SSE,150,1.0,2.0,49,0.00,,---,0.00,VWS V14.01,2013-04-19 17:31:00,
2013-04-19 10:36:00,69.1,49.2,30.18,SSE,150,1.0,2.0,49,0.00,,---,0.00,VWS V14.01,2013-04-19 17:36:00,
2013-04-19 10:41:00,69.8,48.7,30.18,SSE,150,2.0,4.0,47,0.00,,---,0.00,VWS V14.01,2013-04-19 17:41:00,
2013-04-19 10:45:00,70.3,48.6,30.17,SE,145,0.0,4.0,46,0.00,,---,0.00,VWS V14.01,2013-04-19 17:45:00,
2013-04-19 10:46:00,70.4,48.7,30.17,SE,144,2.0,4.0,46,0.00,,---,0.00,VWS V14.01,2013-04-19 17:46:00,
2013-04-19 10:51:00,70.9,50.8,30.17,SE,144,2.0,4.0,49,0.00,,---,0.00,VWS V14.01,2013-04-19 17:51:00,
2013-04-19 10:56:00,71.1,51.0,30.17,SE,144,0.0,6.0,49,0.00,,---,0.00,VWS V14.01,2013-04-19 17:56:00,
2013-04-19 11:00:00,71.1,49.9,30.17,SE,139,2.0,7.0,47,0.00,,---,0.00,VWS V14.01,2013-04-19 18:00:00,
2013-04-19 11:01:00,71.1,49.3,30.17,SE,139,6.0,6.0,46,0.00,,---,0.00,VWS V14.01,2013-04-19 18:01:00,
2013-04-19 11:06:00,71.2,50.5,30.17,SE,139,2.0,8.0,48,0.00,,---,0.00,VWS V14.01,2013-04-19 18:06:00,
2013-04-19 11:11:00,71.6,50.3,30.17,SE,128,2.0,8.0,47,0.00,,---,0.00,VWS V14.01,2013-04-19 18:11:00,
2013-04-19 11:15:00,72.1,49.0,30.17,SE,128,6.0,8.0,44,0.00,,---,0.00,VWS V14.01,2013-04-19 18:15:00,
2013-04-19 11:16:00,72.1,49.0,30.17,SE,128,2.0,6.0,44,0.00,,---,0.00,VWS V14.01,2013-04-19 18:16:00,
2013-04-19 11:21:00,72.4,50.5,30.17,SE,128,4.0,6.0,46,0.00,,---,0.00,VWS V14.01,2013-04-19 18:21:00,
2013-04-19 11:26:00,72.4,49.3,30.17,SE,128,0.0,6.0,44,0.00,,---,0.00,VWS V14.01,2013-04-19 18:26:00,
2013-04-19 11:30:00,72.7,50.2,30.17,SE,128,0.0,6.0,45,0.00,,---,0.00,VWS V14.01,2013-04-19 18:30:00,
2013-04-19 11:31:00,72.7,50.2,30.17,SE,128,2.0,4.0,45,0.00,,---,0.00,VWS V14.01,2013-04-19 18:31:00,
2013-04-19 11:36:00,73.0,49.8,30.17,ESE,120,0.0,5.0,44,0.00,,---,0.00,VWS V14.01,2013-04-19 18:36:00,
2013-04-19 11:41:00,73.4,50.8,30.17,ESE,119,0.0,5.0,45,0.00,,---,0.00,VWS V14.01,2013-04-19 18:41:00,
2013-04-19 11:45:00,74.0,51.3,30.16,ESE,119,1.0,5.0,45,0.00,,---,0.00,VWS V14.01,2013-04-19 18:45:00,
2013-04-19 11:46:00,74.1,51.4,30.16,ESE,119,1.0,2.0,45,0.00,,---,0.00,VWS V14.01,2013-04-19 18:46:00,
2013-04-19 11:51:00,74.8,48.9,30.16,East,84,0.0,2.0,40,0.00,,---,0.00,VWS V14.01,2013-04-19 18:51:00,
2013-04-19 11:56:00,75.4,49.4,30.16,ENE,78,0.0,3.0,40,0.00,,---,0.00,VWS V14.01,2013-04-19 18:56:00,
2013-04-19 12:00:00,76.0,49.3,30.16,ENE,78,0.0,3.0,39,0.00,,---,0.00,VWS V14.01,2013-04-19 19:00:00,
2013-04-19 12:01:00,76.1,49.4,30.15,ENE,78,0.0,0.0,39,0.00,,---,0.00,VWS V14.01,2013-04-19 19:01:00,
2013-04-19 12:06:00,76.8,49.3,30.15,ENE,78,0.0,3.0,38,0.00,,---,0.00,VWS V14.01,2013-04-19 19:06:00,
2013-04-19 12:11:00,77.0,48.8,30.15,NE,53,1.0,5.0,37,0.00,,---,0.00,VWS V14.01,2013-04-19 19:11:00,
2013-04-19 12:15:00,77.4,49.1,30.15,NNW,348,0.0,5.0,37,0.00,,---,0.00,VWS V14.01,2013-04-19 19:15:00,
2013-04-19 12:16:00,77.5,49.2,30.15,NNW,348,0.0,0.0,37,0.00,,---,0.00,VWS V14.01,2013-04-19 19:16:00,
2013-04-19 12:21:00,78.0,49.7,30.15,NNW,345,0.0,7.0,37,0.00,,---,0.00,VWS V14.01,2013-04-19 19:21:00,
2013-04-19 12:26:00,78.7,48.8,30.15,NNW,340,0.0,7.0,35,0.00,,---,0.00,VWS V14.01,2013-04-19 19:26:00,
2013-04-19 12:30:00,79.2,50.7,30.15,NNW,340,1.0,2.0,37,0.00,,---,0.00,VWS V14.01,2013-04-19 19:30:00,
2013-04-19 12:35:00,79.7,48.9,30.14,NNW,340,0.0,6.0,34,0.00,,---,0.00,VWS V14.01,2013-04-19 19:35:00,
2013-04-19 12:40:00,79.9,51.3,30.14,NNW,336,0.0,6.0,37,0.00,,---,0.00,VWS V14.01,2013-04-19 19:40:00,
2013-04-19 12:45:00,80.2,48.5,30.14,NNW,336,4.0,4.0,33,0.00,,---,0.00,VWS V14.01,2013-04-19 19:45:00,
2013-04-19 12:50:00,80.3,50.2,30.13,NNW,347,0.0,5.0,35,0.00,,---,0.00,VWS V14.01,2013-04-19 19:50:00,
2013-04-19 12:55:00,80.2,50.1,30.13,North,5,0.0,5.0,35,0.00,,---,0.00,VWS V14.01,2013-04-19 19:55:00,
2013-04-19 13:00:00,79.9,50.6,30.13,North,355,2.0,5.0,36,0.00,,---,0.00,VWS V14.01,2013-04-19 20:00:00,
2013-04-19 13:05:00,79.8,50.5,30.13,North,360,3.0,6.0,36,0.00,,---,0.00,VWS V14.01,2013-04-19 20:05:00,
2013-04-19 13:10:00,79.8,50.5,30.13,North,360,2.0,6.0,36,0.00,,---,0.00,VWS V14.01,2013-04-19 20:10:00,
2013-04-19 13:15:00,79.9,49.8,30.13,NNW,329,4.0,4.0,35,0.00,,---,0.00,VWS V14.01,2013-04-19 20:15:00,
2013-04-19 13:20:00,80.3,49.4,30.12,NW,323,0.0,9.0,34,0.00,,---,0.00,VWS V14.01,2013-04-19 20:20:00,
2013-04-19 13:25:00,80.7,49.8,30.12,NW,309,2.0,9.0,34,0.00,,---,0.00,VWS V14.01,2013-04-19 20:25:00,
2013-04-19 13:30:00,81.0,50.8,30.11,NW,309,4.0,5.0,35,0.00,,---,0.00,VWS V14.01,2013-04-19 20:30:00,
2013-04-19 13:35:00,81.1,50.9,30.11,WNW,294,5.0,6.0,35,0.00,,---,0.00,VWS V14.01,2013-04-19 20:35:00,
2013-04-19 13:40:00,81.0,50.0,30.11,NW,305,1.0,7.0,34,0.00,,---,0.00,VWS V14.01,2013-04-19 20:40:00,
2013-04-19 13:45:00,81.1,50.1,30.10,WNW,301,2.0,2.0,34,0.00,,---,0.00,VWS V14.01,2013-04-19 20:45:00,
2013-04-19 13:50:00,81.6,48.9,30.10,WNW,301,4.0,5.0,32,0.00,,---,0.00,VWS V14.01,2013-04-19 20:50:00,
2013-04-19 13:55:00,82.1,48.5,30.09,WNW,301,4.0,5.0,31,0.00,,---,0.00,VWS V14.01,2013-04-19 20:55:00,
2013-04-19 14:00:00,82.7,49.9,30.09,South,173,7.0,7.0,32,0.00,,---,0.00,VWS V14.01,2013-04-19 21:00:00,
2013-04-19 14:05:00,82.5,49.7,30.09,SSW,193,2.0,7.0,32,0.00,,---,0.00,VWS V14.01,2013-04-19 21:05:00,
2013-04-19 14:10:00,82.3,50.3,30.09,South,175,5.0,7.0,33,0.00,,---,0.00,VWS V14.01,2013-04-19 21:10:00,
2013-04-19 14:15:00,82.0,50.1,30.08,SSE,148,0.0,0.0,33,0.00,,---,0.00,VWS V14.01,2013-04-19 21:15:00,
2013-04-19 14:20:00,81.9,49.2,30.08,SSE,150,4.0,4.0,32,0.00,,---,0.00,VWS V14.01,2013-04-19 21:20:00,
2013-04-19 14:25:00,81.9,50.8,30.08,SSE,159,4.0,7.0,34,0.00,,---,0.00,VWS V14.01,2013-04-19 21:25:00,
2013-04-19 14:30:00,82.3,49.5,30.07,SSW,205,0.0,7.0,32,0.00,,---,0.00,VWS V14.01,2013-04-19 21:30:00,
2013-04-19 14:35:00,82.7,47.2,30.07,SSW,206,0.0,5.0,29,0.00,,---,0.00,VWS V14.01,2013-04-19 21:35:00,
2013-04-19 14:40:00,82.9,50.0,30.07,SSW,206,3.0,5.0,32,0.00,,---,0.00,VWS V14.01,2013-04-19 21:40:00,
2013-04-19 14:45:00,83.4,49.6,30.07,SSW,213,4.0,6.0,31,0.00,,---,0.00,VWS V14.01,2013-04-19 21:45:00,
2013-04-19 14:50:00,83.7,50.7,30.06,SW,219,4.0,6.0,32,0.00,,---,0.00,VWS V14.01,2013-04-19 21:50:00,
2013-04-19 14:55:00,84.1,49.3,30.06,SW,219,2.0,6.0,30,0.00,,---,0.00,VWS V14.01,2013-04-19 21:55:00,
2013-04-19 15:00:00,83.9,49.2,30.06,SSW,204,3.0,6.0,30,0.00,,---,0.00,VWS V14.01,2013-04-19 22:00:00,
2013-04-19 15:05:00,84.1,48.5,30.06,SSW,206,2.0,5.0,29,0.00,,---,0.00,VWS V14.01,2013-04-19 22:05:00,
2013-04-19 15:10:00,83.9,48.3,30.06,SSW,198,0.0,8.0,29,0.00,,---,0.00,VWS V14.01,2013-04-19 22:10:00,
2013-04-19 15:15:00,83.9,51.8,30.05,WSW,239,5.0,8.0,33,0.00,,---,0.00,VWS V14.01,2013-04-19 22:15:00,
2013-04-19 15:20:00,84.0,48.4,30.05,WSW,238,7.0,7.0,29,0.00,,---,0.00,VWS V14.01,2013-04-19 22:20:00,
2013-04-19 15:25:00,84.2,49.4,30.05,WSW,237,2.0,7.0,30,0.00,,---,0.00,VWS V14.01,2013-04-19 22:25:00,
2013-04-19 15:30:00,84.3,46.7,30.05,WSW,237,0.0,7.0,27,0.00,,---,0.00,VWS V14.01,2013-04-19 22:30:00,
2013-04-19 15:35:00,84.6,47.9,30.05,WSW,240,4.0,6.0,28,0.00,,---,0.00,VWS V14.01,2013-04-19 22:35:00,
2013-04-19 15:40:00,84.7,48.0,30.05,WSW,240,0.0,6.0,28,0.00,,---,0.00,VWS V14.01,2013-04-19 22:40:00,
2013-04-19 15:45:00,84.8,48.1,30.04,WSW,240,2.0,6.0,28,0.00,,---,0.00,VWS V14.01,2013-04-19 22:45:00,
2013-04-19 15:50:00,85.0,51.0,30.04,WSW,240,0.0,4.0,31,0.00,,---,0.00,VWS V14.01,2013-04-19 22:50:00,
2013-04-19 15:55:00,84.9,50.9,30.03,SE,130,2.0,8.0,31,0.00,,---,0.00,VWS V14.01,2013-04-19 22:55:00,
2013-04-19 16:00:00,84.7,47.1,30.03,SE,130,2.0,8.0,27,0.00,,---,0.00,VWS V14.01,2013-04-19 23:00:00,
2013-04-19 16:05:00,84.4,49.6,30.02,SE,130,4.0,4.0,30,0.00,,---,0.00,VWS V14.01,2013-04-19 23:05:00,
2013-04-19 16:10:00,84.5,48.8,30.02,SSW,196,1.0,6.0,29,0.00,,---,0.00,VWS V14.01,2013-04-19 23:10:00,
2013-04-19 16:15:00,84.9,45.2,30.02,SSW,203,2.0,6.0,25,0.00,,---,0.00,VWS V14.01,2013-04-19 23:15:00,
2013-04-19 16:20:00,85.3,44.5,30.02,SSW,205,0.0,4.0,24,0.00,,---,0.00,VWS V14.01,2013-04-19 23:20:00,
2013-04-19 16:25:00,85.4,46.7,30.02,SSW,205,3.0,4.0,26,0.00,,---,0.00,VWS V14.01,2013-04-19 23:25:00,
2013-04-19 16:30:00,85.5,49.7,30.02,SSW,205,3.0,4.0,29,0.00,,---,0.00,VWS V14.01,2013-04-19 23:30:00,
2013-04-19 16:35:00,85.2,46.5,30.02,SSW,204,0.0,4.0,26,0.00,,---,0.00,VWS V14.01,2013-04-19 23:35:00,
2013-04-19 16:40:00,84.7,48.0,30.01,SSW,202,1.0,4.0,28,0.00,,---,0.00,VWS V14.01,2013-04-19 23:40:00,
2013-04-19 16:45:00,84.2,45.6,30.02,SSW,192,4.0,5.0,26,0.00,,---,0.00,VWS V14.01,2013-04-19 23:45:00,
2013-04-19 16:50:00,83.7,48.1,30.01,SSE,158,8.0,8.0,29,0.00,,---,0.00,VWS V14.01,2013-04-19 23:50:00,
2013-04-19 16:55:00,83.4,48.8,30.01,SSE,153,5.0,8.0,30,0.00,,---,0.00,VWS V14.01,2013-04-19 23:55:00,
2013-04-19 17:00:00,83.1,48.5,30.01,SE,130,4.0,9.0,30,0.00,,---,0.00,VWS V14.01,2013-04-20 00:00:00,
2013-04-19 17:05:00,82.9,49.2,30.01,South,175,0.0,9.0,31,0.00,,---,0.00,VWS V14.01,2013-04-20 00:05:00,
2013-04-19 17:10:00,82.7,49.0,30.01,South,175,4.0,9.0,31,0.00,,---,0.00,VWS V14.01,2013-04-20 00:10:00,
2013-04-19 17:15:00,82.8,48.2,30.01,South,175,0.0,9.0,30,0.00,,---,0.00,VWS V14.01,2013-04-20 00:15:00,
2013-04-19 17:20:00,82.9,46.5,30.00,South,175,2.0,4.0,28,0.00,,---,0.00,VWS V14.01,2013-04-20 00:20:00,
2013-04-19 17:25:00,83.1,47.6,30.00,South,176,0.0,4.0,29,0.00,,---,0.00,VWS V14.01,2013-04-20 00:25:00,
2013-04-19 17:30:00,83.0,50.1,30.00,SSE,163,5.0,8.0,32,0.00,,---,0.00,VWS V14.01,2013-04-20 00:30:00,
2013-04-19 17:35:00,82.4,51.2,30.00,SSE,163,0.0,6.0,34,0.00,,---,0.00,VWS V14.01,2013-04-20 00:35:00,
2013-04-19 17:40:00,82.1,48.5,30.00,SSE,163,0.0,6.0,31,0.00,,---,0.00,VWS V14.01,2013-04-20 00:40:00,
2013-04-19 17:45:00,81.8,47.4,30.00,SSE,163,0.0,6.0,30,0.00,,---,0.00,VWS V14.01,2013-04-20 00:45:00,
2013-04-19 17:50:00,81.7,47.3,30.00,SSE,163,2.0,4.0,30,0.00,,---,0.00,VWS V14.01,2013-04-20 00:50:00,
2013-04-19 17:55:00,81.8,49.9,29.99,SSE,162,0.0,4.0,33,0.00,,---,0.00,VWS V14.01,2013-04-20 00:55:00,
2013-04-19 18:00:00,81.8,48.2,29.99,SSE,162,0.0,4.0,31,0.00,,---,0.00,VWS V14.01,2013-04-20 01:00:00,
2013-04-19 18:05:00,81.8,51.5,29.99,SSE,162,0.0,0.0,35,0.00,,---,0.00,VWS V14.01,2013-04-20 01:05:00,
2013-04-19 18:10:00,81.7,49.8,29.99,SSE,163,1.0,5.0,33,0.00,,---,0.00,VWS V14.01,2013-04-20 01:10:00,
2013-04-19 18:15:00,81.3,51.8,29.99,SSE,162,1.0,6.0,36,0.00,,---,0.00,VWS V14.01,2013-04-20 01:15:00,
2013-04-19 18:20:00,80.9,52.2,29.99,SSE,162,1.0,4.0,37,0.00,,---,0.00,VWS V14.01,2013-04-20 01:20:00,
2013-04-19 18:25:00,80.5,50.4,29.99,SSE,157,0.0,4.0,35,0.00,,---,0.00,VWS V14.01,2013-04-20 01:25:00,
2013-04-19 18:30:00,80.2,51.6,29.99,SSE,157,0.0,4.0,37,0.00,,---,0.00,VWS V14.01,2013-04-20 01:30:00,
2013-04-19 18:35:00,80.0,54.9,29.99,SSE,157,4.0,4.0,42,0.00,,---,0.00,VWS V14.01,2013-04-20 01:35:00,
2013-04-19 18:39:00,79.7,48.1,29.99,SSE,157,1.0,4.0,33,0.00,,---,0.00,VWS V14.01,2013-04-20 01:39:00,
2013-04-19 18:44:00,79.7,48.9,29.99,SSE,157,0.0,5.0,34,0.00,,---,0.00,VWS V14.01,2013-04-20 01:44:00,
2013-04-19 18:45:00,79.7,51.2,29.99,SSE,157,0.0,5.0,37,0.00,,---,0.00,VWS V14.01,2013-04-20 01:45:00,
2013-04-19 18:49:00,79.6,51.8,29.99,SSE,157,0.0,1.0,38,0.00,,---,0.00,VWS V14.01,2013-04-20 01:49:00,
2013-04-19 18:54:00,79.5,51.7,29.99,SSE,157,0.0,2.0,38,0.00,,---,0.00,VWS V14.01,2013-04-20 01:54:00,
2013-04-19 18:59:00,79.4,52.3,29.98,SSE,157,0.0,2.0,39,0.00,,---,0.00,VWS V14.01,2013-04-20 01:59:00,
2013-04-19 19:00:00,79.4,52.3,29.98,SSE,157,0.0,2.0,39,0.00,,---,0.00,VWS V14.01,2013-04-20 02:00:00,
2013-04-19 19:04:00,79.1,54.7,29.98,SSE,157,0.0,0.0,43,0.00,,---,0.00,VWS V14.01,2013-04-20 02:04:00,
2013-04-19 19:09:00,78.7,52.4,29.98,SSE,157,0.0,0.0,40,0.00,,---,0.00,VWS V14.01,2013-04-20 02:09:00,
2013-04-19 19:14:00,78.4,50.0,29.98,SSE,157,0.0,4.0,37,0.00,,---,0.00,VWS V14.01,2013-04-20 02:14:00,
2013-04-19 19:15:00,78.3,49.9,29.98,SSE,157,0.0,4.0,37,0.00,,---,0.00,VWS V14.01,2013-04-20 02:15:00,
2013-04-19 19:19:00,78.1,50.5,29.98,SSE,157,0.0,4.0,38,0.00,,---,0.00,VWS V14.01,2013-04-20 02:19:00,
2013-04-19 19:24:00,77.7,50.1,29.98,SSE,157,0.0,4.0,38,0.00,,---,0.00,VWS V14.01,2013-04-20 02:24:00,
2013-04-19 19:29:00,77.4,51.2,29.98,SSE,157,2.0,5.0,40,0.00,,---,0.00,VWS V14.01,2013-04-20 02:29:00,
2013-04-19 19:30:00,77.3,51.1,29.98,SSE,157,5.0,5.0,40,0.00,,---,0.00,VWS V14.01,2013-04-20 02:30:00,
2013-04-19 19:34:00,77.0,51.5,29.98,SSE,157,6.0,6.0,41,0.00,,---,0.00,VWS V14.01,2013-04-20 02:34:00,
2013-04-19 19:39:00,76.6,52.5,29.97,SSE,157,5.0,7.0,43,0.00,,---,0.00,VWS V14.01,2013-04-20 02:39:00,
2013-04-19 19:44:00,76.2,51.5,29.97,SSE,157,2.0,7.0,42,0.00,,---,0.00,VWS V14.01,2013-04-20 02:44:00,
2013-04-19 19:45:00,76.2,52.1,29.97,SSE,157,1.0,7.0,43,0.00,,---,0.00,VWS V14.01,2013-04-20 02:45:00,
2013-04-19 19:49:00,75.8,51.1,29.97,SSE,157,0.0,2.0,42,0.00,,---,0.00,VWS V14.01,2013-04-20 02:49:00,
2013-04-19 19:54:00,75.5,50.8,29.97,SSE,157,0.0,2.0,42,0.00,,---,0.00,VWS V14.01,2013-04-20 02:54:00,
2013-04-19 19:59:00,75.1,51.1,29.97,SSE,157,1.0,4.0,43,0.00,,---,0.00,VWS V14.01,2013-04-20 02:59:00,
2013-04-19 20:00:00,75.0,51.6,29.97,SSE,157,0.0,4.0,44,0.00,,---,0.00,VWS V14.01,2013-04-20 03:00:00,
2013-04-19 20:04:00,74.7,50.7,29.97,SSE,157,0.0,0.0,43,0.00,,---,0.00,VWS V14.01,2013-04-20 03:04:00,
2013-04-19 20:09:00,74.2,51.5,29.97,SSE,157,0.0,4.0,45,0.00,,---,0.00,VWS V14.01,2013-04-20 03:09:00,
2013-04-19 20:14:00,73.7,51.7,29.97,SSE,157,0.0,4.0,46,0.00,,---,0.00,VWS V14.01,2013-04-20 03:14:00,
2013-04-19 20:15:00,73.7,51.7,29.97,SSE,157,0.0,4.0,46,0.00,,---,0.00,VWS V14.01,2013-04-20 03:15:00,
2013-04-19 20:19:00,73.3,50.1,29.97,SSE,157,0.0,0.0,44,0.00,,---,0.00,VWS V14.01,2013-04-20 03:19:00,
2013-04-19 20:24:00,72.8,50.2,29.97,SSE,157,0.0,0.0,45,0.00,,---,0.00,VWS V14.01,2013-04-20 03:24:00,
2013-04-19 20:29:00,72.4,49.9,29.98,SSE,157,0.0,0.0,45,0.00,,---,0.00,VWS V14.01,2013-04-20 03:29:00,
2013-04-19 20:30:00,72.3,49.8,29.98,SSE,157,0.0,0.0,45,0.00,,---,0.00,VWS V14.01,2013-04-20 03:30:00,
2013-04-19 20:34:00,72.1,50.2,29.98,SSE,157,0.0,0.0,46,0.00,,---,0.00,VWS V14.01,2013-04-20 03:34:00,
2013-04-19 20:39:00,71.7,51.0,29.97,SSE,157,0.0,0.0,48,0.00,,---,0.00,VWS V14.01,2013-04-20 03:39:00,
2013-04-19 20:44:00,71.4,50.7,29.97,SSE,157,0.0,0.0,48,0.00,,---,0.00,VWS V14.01,2013-04-20 03:44:00,
2013-04-19 20:45:00,71.3,50.6,29.97,SSE,157,0.0,0.0,48,0.00,,---,0.00,VWS V14.01,2013-04-20 03:45:00,
2013-04-19 20:49:00,71.0,50.9,29.98,SSE,157,0.0,0.0,49,0.00,,---,0.00,VWS V14.01,2013-04-20 03:49:00,
2013-04-19 20:54:00,70.6,51.1,29.98,SSE,157,0.0,0.0,50,0.00,,---,0.00,VWS V14.01,2013-04-20 03:54:00,
2013-04-19 20:59:00,70.2,50.7,29.98,SSE,157,0.0,5.0,50,0.00,,---,0.00,VWS V14.01,2013-04-20 03:59:00,
2013-04-19 21:00:00,70.1,50.6,29.98,SSE,157,0.0,5.0,50,0.00,,---,0.00,VWS V14.01,2013-04-20 04:00:00,
2013-04-19 21:01:00,70.0,50.5,29.98,SSE,157,0.0,0.0,50,0.00,,---,0.00,VWS V14.01,2013-04-20 04:01:00,
2013-04-19 21:06:00,69.7,50.8,29.99,SSE,157,1.0,5.0,51,0.00,,---,0.00,VWS V14.01,2013-04-20 04:06:00,
2013-04-19 21:11:00,69.4,50.5,29.99,SSE,157,0.0,5.0,51,0.00,,---,0.00,VWS V14.01,2013-04-20 04:11:00,
2013-04-19 21:15:00,69.2,50.8,29.99,SSE,157,0.0,5.0,52,0.00,,---,0.00,VWS V14.01,2013-04-20 04:15:00,
2013-04-19 21:16:00,69.1,50.8,29.99,SSE,157,0.0,0.0,52,0.00,,---,0.00,VWS V14.01,2013-04-20 04:16:00,
2013-04-19 21:21:00,68.9,50.6,29.99,SSE,157,0.0,0.0,52,0.00,,---,0.00,VWS V14.01,2013-04-20 04:21:00,
2013-04-19 21:26:00,68.7,50.9,29.99,SSE,157,0.0,0.0,53,0.00,,---,0.00,VWS V14.01,2013-04-20 04:26:00,
2013-04-19 21:30:00,68.5,50.7,29.99,SSE,157,0.0,1.0,53,0.00,,---,0.00,VWS V14.01,2013-04-20 04:30:00,
2013-04-19 21:31:00,68.5,50.7,29.99,SSE,157,0.0,0.0,53,0.00,,---,0.00,VWS V14.01,2013-04-20 04:31:00,
2013-04-19 21:36:00,68.4,51.6,29.99,SSW,213,5.0,6.0,55,0.00,,---,0.00,VWS V14.01,2013-04-20 04:36:00,
2013-04-19 21:41:00,68.3,50.0,29.99,SW,236,0.0,6.0,52,0.00,,---,0.00,VWS V14.01,2013-04-20 04:41:00,
2013-04-19 21:45:00,68.1,49.8,29.99,SW,236,0.0,6.0,52,0.00,,---,0.00,VWS V14.01,2013-04-20 04:45:00,
2013-04-19 21:46:00,68.1,49.8,29.99,SW,236,0.0,0.0,52,0.00,,---,0.00,VWS V14.01,2013-04-20 04:46:00,
2013-04-19 21:51:00,67.9,50.2,30.00,SW,236,0.0,0.0,53,0.00,,---,0.00,VWS V14.01,2013-04-20 04:51:00,
2013-04-19 21:56:00,67.7,49.5,29.99,SW,236,0.0,0.0,52,0.00,,---,0.00,VWS V14.01,2013-04-20 04:56:00,
2013-04-19 22:00:00,67.5,49.3,29.99,SW,236,0.0,0.0,52,0.00,,---,0.00,VWS V14.01,2013-04-20 05:00:00,
2013-04-19 22:01:00,67.5,49.3,30.00,SW,236,0.0,0.0,52,0.00,,---,0.00,VWS V14.01,2013-04-20 05:01:00,
2013-04-19 22:06:00,67.3,49.1,30.00,SW,236,0.0,0.0,52,0.00,,---,0.00,VWS V14.01,2013-04-20 05:06:00,
2013-04-19 22:10:00,67.1,48.4,30.00,SW,236,0.0,0.0,51,0.00,,---,0.00,VWS V14.01,2013-04-20 05:10:00,
2013-04-19 22:15:00,66.9,48.7,30.00,SW,236,0.0,0.0,52,0.00,,---,0.00,VWS V14.01,2013-04-20 05:15:00,
2013-04-19 22:20:00,66.7,48.5,30.00,SW,236,0.0,0.0,52,0.00,,---,0.00,VWS V14.01,2013-04-20 05:20:00,
2013-04-19 22:25:00,66.5,48.3,30.00,SW,236,1.0,3.0,52,0.00,,---,0.00,VWS V14.01,2013-04-20 05:25:00,
2013-04-19 22:30:00,66.3,48.2,29.99,SW,236,2.0,3.0,52,0.00,,---,0.00,VWS V14.01,2013-04-20 05:30:00,
2013-04-19 22:35:00,66.1,48.5,29.99,WSW,245,2.0,5.0,53,0.00,,---,0.00,VWS V14.01,2013-04-20 05:35:00,
2013-04-19 22:40:00,65.8,48.7,29.99,WSW,245,0.0,5.0,54,0.00,,---,0.00,VWS V14.01,2013-04-20 05:40:00,
2013-04-19 22:45:00,65.6,48.5,30.00,WSW,256,3.0,4.0,54,0.00,,---,0.00,VWS V14.01,2013-04-20 05:45:00,
2013-04-19 22:50:00,65.5,48.9,30.00,West,263,4.0,5.0,55,0.00,,---,0.00,VWS V14.01,2013-04-20 05:50:00,
2013-04-19 22:55:00,65.3,48.2,30.00,NNW,343,4.0,15.0,54,0.00,,---,0.00,VWS V14.01,2013-04-20 05:55:00,
2013-04-19 23:00:00,65.1,49.0,30.00,North,349,4.0,6.0,56,0.00,,---,0.00,VWS V14.01,2013-04-20 06:00:00,
2013-04-19 23:05:00,64.9,48.8,30.00,North,355,7.0,8.0,56,0.00,,---,0.00,VWS V14.01,2013-04-20 06:05:00,
2013-04-19 23:10:00,64.6,48.6,30.01,North,355,4.0,8.0,56,0.00,,---,0.00,VWS V14.01,2013-04-20 06:10:00,
2013-04-19 23:15:00,64.4,47.9,30.00,North,0,4.0,8.0,55,0.00,,---,0.00,VWS V14.01,2013-04-20 06:15:00,
2013-04-19 23:30:00,63.8,45.3,30.01,North,0,3.0,9.0,51,0.00,,---,0.00,VWS V14.01,2013-04-20 06:30:00,
2013-04-19 23:45:00,63.6,44.1,30.01,North,0,4.0,10.0,49,0.00,,---,0.00,VWS V14.01,2013-04-20 06:45:00,